TimeSAST,TemperatureF,Dew PointF,Humidity,Sea Level PressureIn,VisibilityMPH,Wind Direction,Wind SpeedMPH,Gust SpeedMPH,PrecipitationIn,Events,Conditions,WindDirDegrees,DateUTC
12:00 AM,64.4,60.8,88,29.77,6.2,NNE,6.9,-,N/A,,Scattered Clouds,30,2013-03-07 22:00:00
1:00 AM,64.4,60.8,88,29.77,-9999.0,SE,3.5,-,N/A,,Clear,130,2013-03-07 23:00:00
2:00 AM,64,60,81,29.73,6,ENE,5.8,,,,,60,2013-03-08 00:00:00
2:00 AM,62.6,59.0,88,29.74,-9999.0,ENE,4.6,-,N/A,,Clear,60,2013-03-08 00:00:00
3:00 AM,68.0,57.2,68,29.68,-9999.0,NNW,10.4,24.2,N/A,,Clear,340,2013-03-08 01:00:00
4:00 AM,64.4,59.0,83,29.68,-9999.0,WSW,3.5,-,N/A,,Clear,250,2013-03-08 02:00:00
5:00 AM,65,62,85,29.74,12,West,4.6,,,,Scattered Clouds,280,2013-03-08 03:00:00
5:00 AM,64.4,60.8,88,29.74,6.2,NW,5.8,-,N/A,,Partly Cloudy,310,2013-03-08 03:00:00
6:00 AM,62.6,59.0,88,29.74,-9999.0,NNW,5.8,-,N/A,,Clear,330,2013-03-08 04:00:00
7:00 AM,62.6,57.2,82,29.77,-9999.0,WNW,6.9,-,N/A,,Clear,300,2013-03-08 05:00:00
8:00 AM,68,55,53,29.76,12,NNW,4.6,,,,Scattered Clouds,340,2013-03-08 06:00:00
8:00 AM,68.0,55.4,64,29.77,-9999.0,North,4.6,-,N/A,,Clear,350,2013-03-08 06:00:00
9:00 AM,69.8,55.4,60,29.77,-9999.0,NNW,5.8,-,N/A,,Clear,340,2013-03-08 07:00:00
10:00 AM,73.4,53.6,50,29.77,-9999.0,West,4.6,-,N/A,,Clear,280,2013-03-08 08:00:00
11:00 AM,77,54,35,29.75,12,West,4.6,,,,Scattered Clouds,260,2013-03-08 09:00:00
11:00 AM,77.0,53.6,44,29.77,6.2,WSW,6.9,-,N/A,,Partly Cloudy,240,2013-03-08 09:00:00
12:00 PM,78.8,55.4,44,29.74,-9999.0,South,11.5,-,N/A,,Clear,180,2013-03-08 10:00:00
1:00 PM,82.4,55.4,39,29.74,-9999.0,SW,10.4,-,N/A,,Clear,230,2013-03-08 11:00:00
2:00 PM,77,58,41,29.75,12,South,16.1,,,,Partly Cloudy,180,2013-03-08 12:00:00
2:00 PM,77.0,57.2,50,29.74,-9999.0,South,16.1,-,N/A,,Clear,180,2013-03-08 12:00:00
3:00 PM,73.4,62.6,69,29.77,6.2,SSW,18.4,-,N/A,,Scattered Clouds,200,2013-03-08 13:00:00
4:00 PM,68.0,62.6,83,29.77,6.2,SSW,19.6,-,N/A,Rain,Light Rain,210,2013-03-08 14:00:00
5:00 PM,66.2,62.6,88,29.80,6.2,SSW,19.6,-,N/A,,Mostly Cloudy,210,2013-03-08 15:00:00
6:00 PM,64.4,60.8,88,29.86,5.6,SW,16.1,-,N/A,Rain,Light Rain,220,2013-03-08 16:00:00
7:00 PM,62.6,60.8,94,29.89,2.5,SW,19.6,-,N/A,Rain,Light Rain,230,2013-03-08 17:00:00
8:00 PM,63,60,87,29.94,6,West,10.4,,,Rain,Light Rain,280,2013-03-08 18:00:00
8:00 PM,62.6,59.0,88,29.92,6.2,West,10.4,-,N/A,Rain,Light Rain,280,2013-03-08 18:00:00
9:00 PM,62.6,59.0,88,29.98,4.3,West,13.8,-,N/A,Rain,Light Rain,270,2013-03-08 19:00:00
10:00 PM,62.6,59.0,88,30.01,6.2,West,11.5,-,N/A,Rain,Light Rain,280,2013-03-08 20:00:00
11:00 PM,62.6,59.0,88,30.04,6.2,WNW,10.4,-,N/A,,Mostly Cloudy,290,2013-03-08 21:00:00